Time;durP1;ratioP1;P1;durP2;ratioP2;P2;SDS_P1;SDS_P2;PMS_P1;PMS_P2;Temp;Humidity;BMP_temperature;BMP_pressure;BME280_temperature;BME280_humidity;BME280_pressure;Samples;Min_cycle;Max_cycle;Signal;HPM_P1;HPM_P2
2023/01/30 00:00:35;;;;;;;13.40;8.70;;;;;;;41.93;36.93;100884.44;6128196;23;20381;-79
2023/01/30 00:03:01;;;;;;;21.33;9.40;;;;;;;42.00;36.82;100885.53;6128546;23;20957;-83
2023/01/30 00:05:27;;;;;;;19.07;8.67;;;;;;;41.95;37.07;100890.38;6152742;23;20389;-83
2023/01/30 00:07:53;;;;;;;19.47;9.90;;;;;;;41.95;37.01;100882.19;6127392;23;20494;-85
2023/01/30 00:10:19;;;;;;;14.37;8.87;;;;;;;41.91;36.86;100879.34;6129076;23;20944;-83
2023/01/30 00:12:50;;;;;;;15.97;10.63;;;;;;;41.83;37.32;100883.72;6129574;23;20496;-86
2023/01/30 00:15:19;;;;;;;22.97;9.70;;;;;;;41.83;37.23;100886.44;6154702;23;20405;-84
2023/01/30 00:17:46;;;;;;;14.63;7.30;;;;;;;41.88;36.94;100879.22;6127515;23;20401;-85
2023/01/30 00:20:13;;;;;;;17.13;8.93;;;;;;;41.78;37.15;100867.59;6129106;23;20433;-84
2023/01/30 00:22:39;;;;;;;19.57;9.70;;;;;;;41.51;37.63;100851.75;6128987;23;20745;-84
2023/01/30 00:25:06;;;;;;;14.27;7.80;;;;;;;41.71;37.46;100861.84;6127610;23;20859;-79
2023/01/30 00:27:32;;;;;;;13.80;9.33;;;;;;;41.66;37.36;100862.03;6152976;23;20384;-83
2023/01/30 00:29:57;;;;;;;13.20;9.67;;;;;;;41.75;37.47;100856.56;6127595;23;20827;-84
2023/01/30 00:32:25;;;;;;;16.87;8.37;;;;;;;41.82;37.44;100854.91;6152973;23;20305;-84
2023/01/30 00:34:51;;;;;;;17.47;8.50;;;;;;;41.74;37.39;100852.19;6154645;23;20384;-84
2023/01/30 00:37:17;;;;;;;20.00;14.53;;;;;;;41.83;37.28;100859.22;6128499;23;20381;-84
2023/01/30 00:39:43;;;;;;;17.17;11.37;;;;;;;41.84;37.19;100860.81;6127767;23;20435;-83
2023/01/30 00:47:38;;;;;;;20.93;13.97;;;;;;;41.76;37.31;100853.50;6154498;23;20893;-83
2023/01/30 00:50:04;;;;;;;19.43;11.80;;;;;;;41.77;37.32;100846.13;6127819;23;20428;-83
2023/01/30 00:52:32;;;;;;;16.27;10.17;;;;;;;41.76;37.64;100850.78;6128618;23;20793;-85
2023/01/30 00:54:58;;;;;;;21.67;11.57;;;;;;;41.81;37.72;100845.13;6128910;23;20881;-84
2023/01/30 00:57:31;;;;;;;19.83;11.63;;;;;;;41.88;37.10;100846.53;6129640;23;20392;-84
2023/01/30 00:59:56;;;;;;;22.30;12.43;;;;;;;41.86;37.10;100852.28;6129415;23;20653;-85
2023/01/30 01:02:28;;;;;;;20.83;9.73;;;;;;;41.86;37.17;100842.19;6156252;23;20405;-85
2023/01/30 01:04:55;;;;;;;15.00;9.10;;;;;;;41.83;37.47;100833.91;6130565;23;20389;-85
2023/01/30 01:07:21;;;;;;;15.40;9.13;;;;;;;41.86;36.94;100836.72;6105578;23;20472;-85
2023/01/30 01:09:46;;;;;;;25.13;11.37;;;;;;;41.88;37.31;100833.69;6148615;23;20428;-84
2023/01/30 01:12:12;;;;;;;21.70;9.07;;;;;;;41.95;36.91;100833.16;6155012;23;20393;-85
2023/01/30 01:14:38;;;;;;;18.70;9.00;;;;;;;41.90;37.05;100825.19;6146870;23;20246;-84
2023/01/30 01:17:04;;;;;;;15.00;9.83;;;;;;;41.93;37.19;100832.66;6155627;23;20524;-80
2023/01/30 01:19:30;;;;;;;14.40;9.40;;;;;;;41.89;37.03;100829.84;6129663;23;20377;-80
2023/01/30 01:21:56;;;;;;;18.80;10.90;;;;;;;41.90;37.13;100827.91;6129646;23;20547;-80
2023/01/30 01:24:22;;;;;;;18.03;9.20;;;;;;;41.91;36.87;100830.28;6129543;23;20439;-80
2023/01/30 01:26:48;;;;;;;14.93;8.10;;;;;;;41.76;37.35;100829.00;6129786;23;20164;-81
2023/01/30 01:29:15;;;;;;;12.77;9.07;;;;;;;41.89;37.03;100829.03;6129361;23;20634;-80
2023/01/30 01:31:42;;;;;;;14.20;9.50;;;;;;;41.85;37.09;100828.91;6129641;23;20846;-80
2023/01/30 01:34:09;;;;;;;15.40;8.67;;;;;;;41.87;36.98;100837.56;6129212;23;20409;-80
2023/01/30 01:36:35;;;;;;;13.40;8.60;;;;;;;41.83;37.10;100829.25;6129540;23;20381;-80
2023/01/30 01:39:02;;;;;;;20.00;9.97;;;;;;;41.92;37.15;100828.34;6129380;23;20507;-80
2023/01/30 01:41:28;;;;;;;15.00;11.13;;;;;;;41.91;36.82;100826.78;6129439;23;20387;-83
2023/01/30 01:44:08;;;;;;;17.23;9.90;;;;;;;41.94;36.82;100823.38;6155695;23;20448;-80
2023/01/30 01:46:45;;;;;;;29.53;10.60;;;;;;;41.87;37.39;100826.66;6128721;23;20842;-80
2023/01/30 01:49:27;;;;;;;17.93;8.50;;;;;;;41.88;37.20;100822.00;6129376;23;20754;-82
2023/01/30 01:52:16;;;;;;;17.23;9.10;;;;;;;41.86;37.04;100825.84;6129191;23;20381;-80
2023/01/30 01:54:49;;;;;;;18.20;10.50;;;;;;;41.89;37.27;100823.59;6129143;23;20534;-80
2023/01/30 01:57:42;;;;;;;22.33;9.10;;;;;;;41.78;36.98;100825.94;6154014;23;20392;-80
2023/01/30 02:00:11;;;;;;;14.53;9.27;;;;;;;41.90;36.99;100825.19;6128637;23;20389;-80
2023/01/30 02:02:41;;;;;;;10.73;7.80;;;;;;;41.90;37.21;100827.91;6129112;23;20889;-80
2023/01/30 02:05:10;;;;;;;14.17;9.30;;;;;;;41.88;37.08;100817.34;6155214;23;20405;-80
2023/01/30 02:07:54;;;;;;;23.03;10.90;;;;;;;41.79;37.23;100820.13;6128873;23;20918;-82
2023/01/30 02:10:27;;;;;;;22.83;9.33;;;;;;;41.70;37.04;100808.50;6129052;23;20963;-83
2023/01/30 02:12:53;;;;;;;12.77;8.63;;;;;;;41.84;36.80;100803.59;6128988;23;20384;-87
2023/01/30 02:15:19;;;;;;;17.23;9.53;;;;;;;41.86;36.95;100805.97;6153877;23;20385;-80
2023/01/30 02:17:45;;;;;;;17.70;9.90;;;;;;;41.81;37.09;100807.00;6155406;23;20618;-80
2023/01/30 02:20:32;;;;;;;14.03;8.50;;;;;;;41.82;36.78;100810.50;6128907;23;20475;-79
2023/01/30 02:23:13;;;;;;;20.03;10.73;;;;;;;41.79;36.34;100803.78;6128791;23;20385;-80
2023/01/30 02:25:57;;;;;;;20.47;9.30;;;;;;;41.74;36.69;100812.19;6129026;23;20412;-80
2023/01/30 02:29:00;;;;;;;18.50;9.17;;;;;;;41.80;36.87;100812.75;6128738;23;20873;-80
2023/01/30 02:31:42;;;;;;;13.47;8.53;;;;;;;41.63;36.87;100808.25;6153483;23;20385;-80
2023/01/30 02:34:33;;;;;;;14.67;10.27;;;;;;;41.68;37.02;100807.22;6128683;23;20412;-81
2023/01/30 02:37:27;;;;;;;12.87;10.00;;;;;;;41.72;37.01;100810.88;6128893;23;20842;-80
2023/01/30 02:40:25;;;;;;;16.33;8.10;;;;;;;41.69;36.90;100808.84;6128721;23;20525;-80
2023/01/30 02:43:06;;;;;;;14.90;9.90;;;;;;;41.74;37.32;100820.38;6128865;23;20855;-80
2023/01/30 02:45:52;;;;;;;19.27;11.40;;;;;;;41.78;37.03;100824.00;6127541;23;20388;-85
2023/01/30 02:48:29;;;;;;;29.00;11.00;;;;;;;41.72;37.20;100814.41;6153585;23;20869;-85
2023/01/30 02:51:12;;;;;;;17.40;9.20;;;;;;;41.67;37.19;100817.31;6149296;23;20404;-82
2023/01/30 02:53:38;;;;;;;11.70;9.10;;;;;;;41.70;37.13;100816.69;6145385;23;20436;-84
2023/01/30 02:56:04;;;;;;;21.10;9.67;;;;;;;41.69;36.93;100808.84;6128429;23;20440;-84
2023/01/30 02:58:36;;;;;;;18.90;8.97;;;;;;;41.63;36.97;100804.72;6153286;23;20389;-84
2023/01/30 03:01:49;;;;;;;18.07;9.90;;;;;;;41.75;37.24;100802.88;6128642;23;20384;-85
2023/01/30 03:04:36;;;;;;;20.87;13.07;;;;;;;41.76;36.97;100804.47;6142946;23;20468;-85
2023/01/30 03:07:34;;;;;;;16.30;10.30;;;;;;;41.76;37.16;100801.75;6128655;23;20468;-81
2023/01/30 03:10:30;;;;;;;10.33;8.03;;;;;;;41.84;37.19;100806.31;6135937;23;20515;-83
2023/01/30 03:13:19;;;;;;;18.93;11.20;;;;;;;41.80;36.78;100802.66;6127988;23;20413;-79
2023/01/30 03:15:53;;;;;;;15.00;9.63;;;;;;;41.74;37.32;100806.75;6155246;23;20386;-82
2023/01/30 03:18:20;;;;;;;17.90;8.63;;;;;;;41.71;36.87;100807.38;6127445;23;20387;-85
2023/01/30 03:20:46;;;;;;;18.50;9.90;;;;;;;41.71;36.92;100817.47;6128087;23;20734;-85
2023/01/30 03:23:13;;;;;;;19.63;9.93;;;;;;;41.68;37.16;100810.78;6127976;23;20499;-86
2023/01/30 03:25:42;;;;;;;18.60;9.03;;;;;;;41.66;37.08;100812.22;6128296;23;20388;-86
2023/01/30 03:28:11;;;;;;;12.90;8.17;;;;;;;41.72;36.86;100810.88;6129464;23;20409;-85
2023/01/30 03:30:37;;;;;;;13.90;9.20;;;;;;;41.74;36.94;100809.47;6128280;23;20494;-81
2023/01/30 03:33:03;;;;;;;22.63;10.20;;;;;;;41.77;36.79;100799.81;6128678;23;20401;-80
2023/01/30 03:35:29;;;;;;;17.57;9.23;;;;;;;41.70;36.81;100805.78;6128869;23;20476;-79
2023/01/30 03:37:56;;;;;;;22.80;10.90;;;;;;;41.75;36.81;100807.53;6153275;23;20399;-80
2023/01/30 03:40:23;;;;;;;15.93;9.50;;;;;;;41.65;37.05;100797.81;6154586;23;20408;-83
2023/01/30 03:42:49;;;;;;;19.10;11.10;;;;;;;41.66;36.74;100798.59;6172192;23;20400;-80
2023/01/30 03:45:15;;;;;;;14.90;9.10;;;;;;;41.54;36.77;100802.06;6152892;23;20427;-80
2023/01/30 03:47:41;;;;;;;15.33;9.20;;;;;;;41.61;36.50;100797.66;6152485;23;20431;-82
2023/01/30 03:50:08;;;;;;;19.60;8.50;;;;;;;41.67;36.62;100797.47;6128500;23;20441;-84
2023/01/30 03:52:35;;;;;;;15.60;9.23;;;;;;;41.64;36.79;100798.94;6127821;23;20508;-81
2023/01/30 03:55:01;;;;;;;11.97;8.37;;;;;;;41.61;36.60;100794.94;6128376;23;20951;-80
2023/01/30 03:57:27;;;;;;;11.87;8.77;;;;;;;41.63;36.50;100794.63;6128271;23;20411;-80
2023/01/30 03:59:53;;;;;;;11.77;8.90;;;;;;;41.52;37.04;100804.34;6152799;23;20869;-83
2023/01/30 04:02:21;;;;;;;22.40;9.10;;;;;;;41.60;36.74;100800.72;6152460;23;20236;-82
2023/01/30 04:04:48;;;;;;;13.80;8.77;;;;;;;41.61;37.04;100802.31;6153014;23;20220;-82
2023/01/30 04:07:15;;;;;;;20.30;10.00;;;;;;;41.65;36.85;100803.25;6152548;23;20959;-81
2023/01/30 04:09:40;;;;;;;16.13;9.00;;;;;;;41.66;36.97;100804.84;6128104;23;20421;-80
2023/01/30 04:12:06;;;;;;;17.00;10.03;;;;;;;41.61;37.18;100800.38;6128129;23;20391;-83
2023/01/30 04:14:32;;;;;;;16.03;9.10;;;;;;;41.60;37.16;100806.19;6127530;23;20189;-83
2023/01/30 04:16:58;;;;;;;12.67;8.33;;;;;;;41.59;37.39;100801.88;6153142;23;20415;-83
2023/01/30 04:19:24;;;;;;;19.40;9.10;;;;;;;41.59;37.47;100810.03;6128112;23;20377;-84
2023/01/30 04:21:51;;;;;;;16.17;9.57;;;;;;;41.53;37.23;100809.44;6154504;23;20382;-85
2023/01/30 04:24:17;;;;;;;14.30;9.63;;;;;;;41.48;37.76;100806.13;6104288;23;20393;-84
2023/01/30 04:26:43;;;;;;;24.47;9.90;;;;;;;41.51;37.52;100813.63;6127573;23;20388;-84
2023/01/30 04:29:09;;;;;;;21.10;10.87;;;;;;;41.49;37.63;100811.22;6128918;23;20435;-85
2023/01/30 04:31:35;;;;;;;16.00;11.07;;;;;;;41.51;37.50;100824.53;6130122;23;20472;-81
2023/01/30 04:34:01;;;;;;;15.17;12.50;;;;;;;41.46;37.35;100827.44;6129966;23;20417;-80
2023/01/30 04:36:28;;;;;;;13.97;9.60;;;;;;;41.50;37.34;100828.38;6129862;23;20149;-80
2023/01/30 04:38:56;;;;;;;20.60;13.03;;;;;;;41.41;37.78;100831.16;6154898;23;20377;-79
2023/01/30 04:41:22;;;;;;;16.60;9.07;;;;;;;41.43;37.71;100839.78;6129835;23;20436;-80
2023/01/30 04:43:48;;;;;;;18.47;11.37;;;;;;;41.50;37.54;100845.50;6154465;23;20404;-80
2023/01/30 04:46:14;;;;;;;20.00;10.83;;;;;;;41.50;37.53;100844.72;6129730;23;20385;-80
2023/01/30 04:48:40;;;;;;;12.53;8.90;;;;;;;41.38;37.72;100847.38;6129718;23;20209;-80
2023/01/30 04:51:06;;;;;;;15.17;9.47;;;;;;;41.36;37.29;100844.94;6129952;23;20868;-81
2023/01/30 04:53:32;;;;;;;17.07;11.50;;;;;;;41.41;37.65;100854.84;6155902;23;20365;-81
2023/01/30 04:55:58;;;;;;;14.07;10.13;;;;;;;41.47;37.35;100856.25;6130453;23;20377;-82
2023/01/30 04:58:24;;;;;;;19.37;10.90;;;;;;;41.49;38.03;100856.72;6129723;23;20472;-85
2023/01/30 05:00:50;;;;;;;17.93;11.60;;;;;;;41.41;37.53;100844.75;6129694;23;20464;-81
2023/01/30 05:03:16;;;;;;;15.63;8.90;;;;;;;41.42;37.44;100840.13;6129889;23;20405;-81
2023/01/30 05:05:46;;;;;;;14.30;8.37;;;;;;;41.39;37.67;100829.91;6129658;23;20373;-80
2023/01/30 05:08:12;;;;;;;17.53;10.50;;;;;;;41.48;37.42;100844.22;6100800;23;20453;-80
2023/01/30 05:10:38;;;;;;;20.20;9.17;;;;;;;41.50;37.33;100840.06;6100121;23;20508;-84
2023/01/30 05:13:10;;;;;;;14.47;9.10;;;;;;;41.52;37.27;100848.69;6100229;23;20484;-82
2023/01/30 05:15:43;;;;;;;22.17;11.53;;;;;;;41.40;37.12;100840.44;6095907;23;20469;-83
2023/01/30 05:18:13;;;;;;;15.63;9.77;;;;;;;41.52;37.24;100845.97;6125438;23;20394;-87
2023/01/30 05:20:40;;;;;;;17.43;10.80;;;;;;;41.49;37.26;100843.91;6125368;23;20386;-84
2023/01/30 05:23:06;;;;;;;21.70;10.87;;;;;;;41.44;37.84;100844.13;6100031;23;20386;-84
2023/01/30 05:25:32;;;;;;;17.90;11.27;;;;;;;41.42;37.62;100842.84;6100401;23;20417;-84
2023/01/30 05:27:58;;;;;;;23.00;14.13;;;;;;;41.43;37.75;100856.09;6100353;23;20551;-80
2023/01/30 05:30:24;;;;;;;18.60;12.67;;;;;;;41.43;37.51;100860.75;6099370;23;20535;-81
2023/01/30 05:32:50;;;;;;;20.97;12.33;;;;;;;41.39;37.56;100855.19;6100108;23;20938;-81
2023/01/30 05:35:16;;;;;;;17.43;12.50;;;;;;;41.32;37.74;100853.00;6125875;23;20182;-80
2023/01/30 05:37:42;;;;;;;27.60;15.20;;;;;;;41.29;38.29;100861.78;6100471;23;20208;-80
2023/01/30 05:40:09;;;;;;;19.10;13.90;;;;;;;41.29;38.26;100861.00;6099807;23;20603;-81
2023/01/30 05:42:34;;;;;;;20.80;14.77;;;;;;;41.27;38.07;100855.88;6100007;23;20422;-79
2023/01/30 05:45:00;;;;;;;23.20;14.47;;;;;;;41.22;37.92;100860.72;6100121;23;20392;-80
2023/01/30 05:47:26;;;;;;;17.80;12.77;;;;;;;41.23;37.89;100862.31;6099888;23;20496;-82
2023/01/30 05:49:52;;;;;;;14.40;11.83;;;;;;;41.21;38.04;100870.00;6099504;23;20433;-81
2023/01/30 05:52:18;;;;;;;20.73;14.93;;;;;;;41.22;37.91;100879.75;6126114;23;20433;-83
2023/01/30 05:54:44;;;;;;;23.30;15.23;;;;;;;41.24;38.16;100886.47;6099282;23;20643;-81
2023/01/30 05:57:11;;;;;;;18.83;13.33;;;;;;;41.29;38.11;100902.63;6099912;23;20390;-80
2023/01/30 05:59:37;;;;;;;18.63;12.73;;;;;;;41.29;38.29;100902.63;6100029;23;20878;-80
2023/01/30 06:02:04;;;;;;;22.20;14.33;;;;;;;41.28;38.27;100916.56;6098898;23;20414;-86
2023/01/30 06:04:30;;;;;;;31.00;16.30;;;;;;;41.28;37.94;100922.78;6098655;23;20221;-82
2023/01/30 06:06:56;;;;;;;36.07;15.70;;;;;;;41.32;37.91;100921.06;6139208;23;20925;-82
2023/01/30 06:09:22;;;;;;;21.50;14.60;;;;;;;41.35;37.82;100930.47;6153189;23;20190;-83
2023/01/30 06:11:48;;;;;;;19.87;13.37;;;;;;;41.28;37.84;100938.34;6153881;23;20412;-82
2023/01/30 06:14:14;;;;;;;16.77;15.80;;;;;;;41.30;37.55;100944.25;6129204;23;20699;-83
2023/01/30 06:16:39;;;;;;;26.93;15.70;;;;;;;41.26;37.97;100949.56;6129185;23;20173;-83
2023/01/30 06:19:08;;;;;;;21.57;14.63;;;;;;;41.33;38.17;100954.53;6129212;23;20385;-84
2023/01/30 06:21:33;;;;;;;22.07;17.03;;;;;;;41.34;37.90;100954.19;6127542;23;20876;-82
2023/01/30 06:23:59;;;;;;;23.97;16.87;;;;;;;41.29;38.01;100956.25;6128896;23;20385;-83
2023/01/30 06:26:25;;;;;;;22.57;17.30;;;;;;;41.20;37.90;100955.50;6128995;23;20386;-84
2023/01/30 06:28:51;;;;;;;40.30;25.30;;;;;;;41.21;37.93;100966.06;6129471;23;20188;-77
2023/01/30 06:31:17;;;;;;;31.27;22.60;;;;;;;41.20;37.95;100969.91;6129258;23;20175;-85
2023/01/30 06:33:43;;;;;;;44.60;28.93;;;;;;;41.21;38.31;100962.56;6153831;23;20228;-85
2023/01/30 06:36:09;;;;;;;43.40;26.87;;;;;;;41.20;38.35;100961.75;6127787;23;20424;-86
2023/01/30 06:38:35;;;;;;;43.37;29.83;;;;;;;41.25;38.05;100972.47;6126647;23;20384;-85
2023/01/30 06:41:01;;;;;;;43.50;31.97;;;;;;;41.24;38.05;100970.03;6128450;23;20502;-92
2023/01/30 06:43:27;;;;;;;49.47;33.37;;;;;;;41.24;38.19;100979.00;6126812;23;20536;-87
2023/01/30 06:45:53;;;;;;;36.40;27.00;;;;;;;41.20;38.15;100977.28;6127381;23;20793;-92
2023/01/30 06:48:19;;;;;;;32.70;26.40;;;;;;;41.18;38.28;100984.97;6127836;23;20157;-85
2023/01/30 06:50:46;;;;;;;30.20;23.20;;;;;;;41.15;38.28;101008.19;6152531;23;20184;-91
2023/01/30 06:53:13;;;;;;;32.77;24.80;;;;;;;41.16;38.27;101012.50;6128288;23;20397;-87
2023/01/30 06:55:38;;;;;;;35.67;24.07;;;;;;;41.21;38.37;101019.69;6155091;23;20444;-90
2023/01/30 06:58:10;;;;;;;31.77;23.27;;;;;;;41.24;38.18;101036.16;6128968;23;20862;-90
2023/01/30 07:00:38;;;;;;;49.40;29.27;;;;;;;41.30;37.73;101039.50;6129358;23;20401;-91
2023/01/30 07:03:09;;;;;;;59.37;36.30;;;;;;;41.31;38.00;101055.53;6155391;23;20397;-89
2023/01/30 07:05:37;;;;;;;38.70;30.10;;;;;;;41.31;38.09;101054.72;6128959;23;20382;-91
2023/01/30 07:08:03;;;;;;;35.53;26.17;;;;;;;41.33;37.87;101066.13;6129048;23;20812;-91
2023/01/30 07:10:31;;;;;;;26.03;22.70;;;;;;;41.32;37.70;101070.78;6144335;23;20492;-88
2023/01/30 07:12:58;;;;;;;30.83;24.63;;;;;;;41.32;37.80;101083.56;6129559;23;20389;-88
2023/01/30 07:15:24;;;;;;;30.60;22.90;;;;;;;41.32;37.92;101089.00;6155806;23;20391;-93
2023/01/30 07:17:49;;;;;;;33.63;25.10;;;;;;;41.36;37.74;101083.72;6129460;23;20393;-93
2023/01/30 07:20:17;;;;;;;28.77;21.90;;;;;;;41.34;37.58;101087.56;6129042;23;20387;-93
2023/01/30 07:22:52;;;;;;;30.00;21.40;;;;;;;41.38;37.69;101098.63;6154453;23;20150;-93
2023/01/30 07:25:24;;;;;;;41.37;24.20;;;;;;;41.39;37.60;101093.97;6117156;23;20940;-93
2023/01/30 07:27:51;;;;;;;28.07;22.33;;;;;;;41.40;37.56;101096.38;6125019;23;20398;-92
2023/01/30 07:30:19;;;;;;;38.30;23.50;;;;;;;41.43;37.60;101103.06;6143242;23;20416;-93
2023/01/30 07:32:49;;;;;;;28.77;20.93;;;;;;;41.45;37.39;101106.28;6129223;23;20419;-92
2023/01/30 07:35:15;;;;;;;31.83;24.57;;;;;;;41.45;37.42;101112.53;6128707;23;20417;-91
2023/01/30 07:37:44;;;;;;;29.47;22.83;;;;;;;41.43;37.41;101112.03;6153566;23;20855;-92
2023/01/30 07:40:11;;;;;;;32.87;22.77;;;;;;;41.46;37.27;101110.63;6129175;23;20389;-93
2023/01/30 07:42:37;;;;;;;32.50;28.33;;;;;;;41.49;37.47;101115.38;6128496;23;20870;-91
2023/01/30 07:45:03;;;;;;;39.03;26.90;;;;;;;41.53;37.33;101117.16;6129151;23;20394;-92
2023/01/30 07:47:29;;;;;;;38.53;28.57;;;;;;;41.62;37.43;101128.03;6128447;23;20389;-92
2023/01/30 07:49:55;;;;;;;49.90;29.33;;;;;;;41.65;37.13;101124.63;6128749;23;20528;-93
2023/01/30 07:52:21;;;;;;;35.63;28.47;;;;;;;41.57;36.98;101129.00;6129442;23;20405;-94
2023/01/30 07:54:47;;;;;;;42.53;29.03;;;;;;;41.58;37.13;101122.41;6129316;23;20413;-95
2023/01/30 07:57:13;;;;;;;45.57;33.50;;;;;;;41.58;36.99;101121.63;6129378;23;20409;-95
2023/01/30 07:59:40;;;;;;;39.63;28.77;;;;;;;41.60;36.91;101124.81;6130086;23;20389;-94
2023/01/30 08:02:08;;;;;;;45.63;29.90;;;;;;;41.60;37.32;101122.09;6129767;23;20755;-94
2023/01/30 08:04:37;;;;;;;42.20;29.63;;;;;;;41.66;37.31;101123.50;6130828;23;20413;-94
2023/01/30 08:07:03;;;;;;;42.63;30.97;;;;;;;41.72;37.12;101122.22;6132006;23;21021;-95
2023/01/30 08:09:29;;;;;;;32.23;21.80;;;;;;;41.70;36.81;101118.22;6131504;23;20429;-94
2023/01/30 08:11:55;;;;;;;38.13;25.27;;;;;;;41.78;37.18;101131.03;6131556;23;20392;-95
2023/01/30 08:14:22;;;;;;;34.23;19.43;;;;;;;41.82;36.91;101130.06;6131402;23;20380;-95
2023/01/30 08:16:48;;;;;;;24.23;19.10;;;;;;;41.81;36.85;101127.66;6131943;23;20463;-94
2023/01/30 08:19:14;;;;;;;23.07;18.30;;;;;;;41.85;36.54;101134.84;6131880;23;20419;-94
2023/01/30 08:21:41;;;;;;;25.30;19.00;;;;;;;41.89;36.44;101132.28;6132215;23;20444;-95
2023/01/30 08:24:07;;;;;;;21.33;15.13;;;;;;;41.96;36.02;101124.38;6131628;23;20389;-96
2023/01/30 08:26:33;;;;;;;37.87;17.90;;;;;;;41.96;36.19;101113.47;6131706;23;20392;-96
2023/01/30 08:28:59;;;;;;;29.00;18.37;;;;;;;42.02;36.16;101125.78;6133013;23;20429;-96
2023/01/30 08:31:27;;;;;;;26.70;18.27;;;;;;;42.04;35.97;101115.34;6159878;23;20392;-96
2023/01/30 08:33:53;;;;;;;33.17;19.60;;;;;;;42.08;36.04;101110.06;6108339;23;20389;-95
2023/01/30 08:36:20;;;;;;;41.50;24.30;;;;;;;42.28;35.88;101106.56;6133040;23;20407;-94
2023/01/30 08:38:46;;;;;;;25.53;17.33;;;;;;;42.21;36.02;101098.13;6132896;23;20811;-95
2023/01/30 08:41:12;;;;;;;30.00;18.80;;;;;;;42.14;35.83;101111.47;6156306;23;20416;-93
2023/01/30 08:43:38;;;;;;;29.47;18.50;;;;;;;42.06;35.94;101106.88;6130045;23;20731;-90
2023/01/30 08:46:04;;;;;;;28.00;18.07;;;;;;;42.06;35.57;101104.13;6130543;23;20160;-88
2023/01/30 08:48:32;;;;;;;27.27;17.10;;;;;;;42.11;35.89;101101.19;6129783;23;20385;-85
2023/01/30 08:50:58;;;;;;;21.43;16.77;;;;;;;42.17;35.59;101105.38;6106077;23;20433;-90
2023/01/30 08:53:24;;;;;;;26.43;18.70;;;;;;;42.23;35.59;101106.75;6130999;23;20845;-92
2023/01/30 08:55:51;;;;;;;20.63;16.30;;;;;;;42.31;35.21;101113.31;6130882;23;20386;-93
2023/01/30 08:58:44;;;;;;;27.73;16.00;;;;;;;42.38;34.90;101119.03;6106731;23;20741;-91
2023/01/30 09:01:39;;;;;;;25.97;15.30;;;;;;;42.18;35.20;101106.19;6168563;23;20396;-88
2023/01/30 09:04:05;;;;;;;20.60;13.83;;;;;;;42.01;35.45;101109.78;6163232;23;20468;-86
2023/01/30 09:06:31;;;;;;;18.40;12.60;;;;;;;42.10;35.09;101114.03;6130365;23;20472;-84
2023/01/30 09:08:58;;;;;;;18.10;11.93;;;;;;;41.98;34.94;101116.66;6130241;23;20491;-84
2023/01/30 09:11:24;;;;;;;20.17;11.90;;;;;;;42.13;35.01;101118.84;6153479;23;20396;-80
2023/01/30 09:13:50;;;;;;;22.80;10.30;;;;;;;42.26;34.76;101116.22;6130066;23;20417;-85
2023/01/30 09:16:16;;;;;;;19.07;11.60;;;;;;;42.23;34.58;101105.97;6130187;23;20172;-84
2023/01/30 09:18:43;;;;;;;14.70;9.40;;;;;;;42.32;34.54;101106.72;6131912;23;20389;-86
2023/01/30 09:21:11;;;;;;;17.23;11.50;;;;;;;42.34;34.27;101109.91;6155878;23;20381;-86
2023/01/30 09:23:37;;;;;;;20.97;10.57;;;;;;;42.34;34.25;101102.53;6130593;23;20795;-89
2023/01/30 09:26:04;;;;;;;20.97;11.73;;;;;;;42.28;34.80;101095.69;6130170;23;20384;-88
2023/01/30 09:28:31;;;;;;;17.47;13.07;;;;;;;42.38;34.33;101098.00;6130161;23;20859;-88
2023/01/30 09:30:58;;;;;;;13.17;10.87;;;;;;;42.29;34.75;101094.53;6130117;23;21000;-88
2023/01/30 09:33:24;;;;;;;24.37;12.73;;;;;;;42.38;34.66;101094.50;6130043;23;20528;-88
2023/01/30 09:35:50;;;;;;;15.10;10.93;;;;;;;42.32;34.59;101099.34;6129685;23;20409;-87
2023/01/30 09:38:17;;;;;;;15.03;10.30;;;;;;;42.18;35.23;101087.91;6130474;23;20881;-91
2023/01/30 09:41:05;;;;;;;19.40;10.83;;;;;;;42.18;35.17;101092.56;6105682;23;20392;-91
2023/01/30 09:43:50;;;;;;;16.23;11.03;;;;;;;42.03;35.10;101089.22;6134229;23;20405;-89
2023/01/30 09:46:39;;;;;;;16.30;10.17;;;;;;;42.09;34.94;101087.91;6132493;23;20460;-91
2023/01/30 09:49:08;;;;;;;14.40;8.60;;;;;;;42.23;34.81;101093.13;6132580;23;20424;-91
2023/01/30 09:51:37;;;;;;;13.20;9.63;;;;;;;41.91;35.08;101096.50;6132343;23;20385;-91
2023/01/30 09:54:16;;;;;;;20.43;9.57;;;;;;;42.21;34.47;101094.59;6132388;23;20953;-91
2023/01/30 09:56:42;;;;;;;17.43;9.40;;;;;;;42.38;34.42;101086.31;6131677;23;20395;-88
2023/01/30 09:59:22;;;;;;;20.83;10.23;;;;;;;42.26;34.42;101076.13;6153519;23;20409;-90
2023/01/30 10:02:21;;;;;;;21.63;13.13;;;;;;;42.23;34.62;101082.22;6126610;23;20942;-89
2023/01/30 10:04:48;;;;;;;17.60;10.60;;;;;;;42.26;34.84;101081.59;6154400;23;20401;-89
2023/01/30 10:07:59;;;;;;;16.37;10.17;;;;;;;42.16;34.61;101081.97;6100790;23;20446;-86
2023/01/30 10:10:50;;;;;;;19.77;9.97;;;;;;;42.17;34.96;101063.69;6070460;23;20438;-91
2023/01/30 10:13:28;;;;;;;20.40;10.70;;;;;;;41.85;35.23;101064.00;6046671;23;20400;-86
2023/01/30 10:16:23;;;;;;;13.07;8.80;;;;;;;42.22;35.12;101053.38;6100555;23;20388;-86
2023/01/30 10:19:04;;;;;;;19.23;11.60;;;;;;;42.04;35.08;101060.03;6100856;23;20396;-90
2023/01/30 10:22:22;;;;;;;22.00;12.23;;;;;;;42.05;35.16;101056.19;6100291;23;20409;-91
2023/01/30 10:24:56;;;;;;;20.87;8.30;;;;;;;41.97;35.30;101055.13;6083744;23;20410;-91
2023/01/30 10:27:24;;;;;;;20.07;8.93;;;;;;;41.98;35.22;101047.75;6101267;23;20711;-92
2023/01/30 10:29:56;;;;;;;12.00;7.83;;;;;;;42.25;35.20;101043.75;6101400;23;20426;-87
2023/01/30 10:32:31;;;;;;;16.00;10.33;;;;;;;42.35;34.87;101033.22;6100215;23;20787;-89
2023/01/30 10:35:05;;;;;;;16.80;9.20;;;;;;;42.21;35.10;101021.81;6126660;23;20440;-92
2023/01/30 10:37:44;;;;;;;13.70;8.67;;;;;;;42.23;35.12;101013.28;6099987;23;20386;-92
2023/01/30 10:40:36;;;;;;;17.73;10.37;;;;;;;42.50;34.51;101023.66;6096313;23;20386;-89
2023/01/30 10:43:36;;;;;;;10.60;8.10;;;;;;;42.54;34.24;101013.69;6100846;23;20397;-93
2023/01/30 10:46:23;;;;;;;16.60;10.80;;;;;;;42.53;34.41;101016.72;6099877;23;20382;-89
2023/01/30 10:49:01;;;;;;;11.63;7.97;;;;;;;42.68;34.33;101012.63;6100622;23;20473;-93
2023/01/30 10:51:49;;;;;;;14.27;8.57;;;;;;;42.75;33.97;101010.13;6101398;23;20405;-94
2023/01/30 10:54:40;;;;;;;21.93;10.43;;;;;;;42.73;33.83;101002.28;6096169;23;20444;-91
2023/01/30 10:57:27;;;;;;;34.80;11.97;;;;;;;42.98;33.68;100999.63;6103861;23;20383;-84
2023/01/30 11:00:37;;;;;;;21.80;10.43;;;;;;;42.94;33.48;100991.31;6116255;23;20374;-92
2023/01/30 11:03:32;;;;;;;16.30;10.30;;;;;;;42.81;33.90;101000.59;6131102;23;20432;-87
2023/01/30 11:06:04;;;;;;;13.53;9.33;;;;;;;43.04;33.39;100988.19;6105163;23;20382;-95
2023/01/30 11:08:32;;;;;;;17.37;9.33;;;;;;;43.04;33.26;100988.19;6132463;23;20445;-90
2023/01/30 11:11:30;;;;;;;19.13;10.10;;;;;;;43.04;33.26;100990.91;6157267;23;20515;-88
2023/01/30 11:14:10;;;;;;;15.10;8.33;;;;;;;43.02;33.48;100989.63;6125486;23;20389;-93
2023/01/30 11:16:56;;;;;;;16.53;8.87;;;;;;;43.11;33.28;100982.94;6135833;23;20385;-91
2023/01/30 11:19:32;;;;;;;23.73;9.50;;;;;;;43.13;33.25;100980.66;6137167;23;20353;-92
2023/01/30 11:22:05;;;;;;;15.47;9.17;;;;;;;43.15;33.58;100974.88;6162635;23;20368;-91
2023/01/30 11:24:41;;;;;;;22.23;10.70;;;;;;;43.03;33.65;100969.38;6135775;23;20385;-89
2023/01/30 11:27:29;;;;;;;19.00;10.33;;;;;;;43.07;33.60;100978.50;6161324;23;20404;-92
2023/01/30 11:30:14;;;;;;;29.10;9.93;;;;;;;43.14;33.93;100963.16;6135632;23;20434;-91
2023/01/30 11:32:42;;;;;;;19.03;10.00;;;;;;;43.23;33.22;100965.00;6134673;23;20388;-90
2023/01/30 11:35:28;;;;;;;17.60;8.97;;;;;;;43.14;33.19;100954.16;6138622;23;20807;-94